Terminal Aerodrome Forecast
Issued by NWS

Current Version | Previous Version | Text Only | Print | Product List | Glossary On
Versions: 1 2 3 4 5 6 7 8 9 10
701
FTUS43 KILX 241120
TAFCMI
TAF
KCMI 241120Z 2412/2512 05008KT P6SM SCT250
     FM241500 11008KT P6SM SCT250=

USA.gov is the U.S. government's official web portal to all federal, state and local government web resources and services.